<?xml version="1.0" encoding="UTF-8" standalone="no" ?>
<gpx xmlns="http://www.topografix.com/GPX/1/1" xmlns:xsi="http://www.w3.org/2001/XMLSchema-instance" xsi:schemaLocation="http://www.topografix.com/GPX/1/1 http://www.topografix.com/GPX/1/1/gpx.xsd" version="1.1" creator="VisuGPX - https://www.visugpx.com">
  <metadata>
    <name>tour france</name>
  </metadata>
  <trk>
    <name><![CDATA[SES_10]]></name>
    <extensions>
      <line xmlns="http://www.topografix.com/GPX/gpx_style/0/2">
        <color>008888</color>
        <width>4</width>
      </line>
    </extensions>
    <trkseg>
      <trkpt lat="43.60557" lon="-0.30568">
        <ele>182.713</ele>
        <time>2019-03-30T14:55:05Z</time>
        <extensions>
          <visugpx:TrkExtension xmlns:visugpx="https://www.visugpx.com/editgpx/">
            <visugpx:node>1</visugpx:node>
            </visugpx:TrkExtension>
        </extensions>
      </trkpt>
      <trkpt lat="43.60466" lon="-0.30554">
        <ele>176.472</ele>
        <time>2016-09-25T16:17:22Z</time>
      </trkpt>
      <trkpt lat="43.60413" lon="-0.30618">
        <ele>171.258</ele>
        <time>2016-09-25T16:17:42Z</time>
      </trkpt>
      <trkpt lat="43.60307" lon="-0.30573">
        <ele>173.339</ele>
        <time>2016-09-25T16:18:02Z</time>
      </trkpt>
      <trkpt lat="43.60248" lon="-0.30588">
        <ele>170.022</ele>
        <time>2016-09-25T16:18:22Z</time>
      </trkpt>
      <trkpt lat="43.60298" lon="-0.30725">
        <ele>169.081</ele>
        <time>2019-03-30T14:56:45Z</time>
      </trkpt>
      <trkpt lat="43.60337" lon="-0.31034">
        <ele>181.467</ele>
        <time>2016-09-25T16:19:02Z</time>
      </trkpt>
      <trkpt lat="43.60356" lon="-0.31107">
        <ele>184.781</ele>
        <time>2019-03-30T14:57:25Z</time>
      </trkpt>
      <trkpt lat="43.60343" lon="-0.31403">
        <ele>187.519</ele>
        <time>2016-09-25T16:20:02Z</time>
      </trkpt>
      <trkpt lat="43.60293" lon="-0.31484">
        <ele>188.008</ele>
        <time>2019-03-30T14:58:05Z</time>
      </trkpt>
      <trkpt lat="43.60203" lon="-0.31575">
        <ele>188.832</ele>
        <time>2016-09-25T16:20:42Z</time>
      </trkpt>
      <trkpt lat="43.60135" lon="-0.3168">
        <ele>188.089</ele>
        <time>2016-09-25T16:21:02Z</time>
      </trkpt>
      <trkpt lat="43.60175" lon="-0.31818">
        <ele>186.348</ele>
        <time>2016-09-25T16:21:22Z</time>
      </trkpt>
      <trkpt lat="43.60205" lon="-0.32069">
        <ele>188.077</ele>
        <time>2016-09-25T16:21:42Z</time>
      </trkpt>
      <trkpt lat="43.60159" lon="-0.32515">
        <ele>201.293</ele>
        <time>2019-03-30T14:59:45Z</time>
      </trkpt>
      <trkpt lat="43.60143" lon="-0.32594">
        <ele>209.894</ele>
        <time>2019-03-30T15:00:05Z</time>
      </trkpt>
      <trkpt lat="43.60034" lon="-0.32665">
        <ele>219.987</ele>
        <time>2019-03-30T15:00:25Z</time>
      </trkpt>
      <trkpt lat="43.59993" lon="-0.32724">
        <ele>217.666</ele>
        <time>2019-03-30T15:00:45Z</time>
      </trkpt>
      <trkpt lat="43.59863" lon="-0.3268">
        <ele>213.144</ele>
        <time>2016-09-25T16:23:22Z</time>
      </trkpt>
      <trkpt lat="43.59812" lon="-0.32682">
        <ele>210.805</ele>
        <time>2016-09-25T16:23:42Z</time>
      </trkpt>
      <trkpt lat="43.59774" lon="-0.32717">
        <ele>208.015</ele>
        <time>2019-03-30T15:01:45Z</time>
      </trkpt>
      <trkpt lat="43.59661" lon="-0.32721">
        <ele>215.208</ele>
        <time>2016-09-25T16:24:22Z</time>
      </trkpt>
      <trkpt lat="43.59585" lon="-0.32745">
        <ele>213.08</ele>
        <time>2016-09-25T16:24:42Z</time>
      </trkpt>
      <trkpt lat="43.59509" lon="-0.32734">
        <ele>205.557</ele>
        <time>2016-09-25T16:25:02Z</time>
      </trkpt>
      <trkpt lat="43.59501" lon="-0.32654">
        <ele>201.666</ele>
        <time>2016-09-25T16:25:22Z</time>
      </trkpt>
      <trkpt lat="43.59372" lon="-0.32655">
        <ele>204.825</ele>
        <time>2019-03-30T15:03:25Z</time>
      </trkpt>
      <trkpt lat="43.59251" lon="-0.32473">
        <ele>201.091</ele>
        <time>2019-03-30T15:03:45Z</time>
      </trkpt>
      <trkpt lat="43.59142" lon="-0.32406">
        <ele>200.082</ele>
        <time>2016-09-25T16:26:42Z</time>
      </trkpt>
      <trkpt lat="43.58948" lon="-0.32202">
        <ele>199.335</ele>
        <time>2016-09-25T16:27:02Z</time>
      </trkpt>
      <trkpt lat="43.58848" lon="-0.32189">
        <ele>199.864</ele>
        <time>2016-09-25T16:27:22Z</time>
      </trkpt>
      <trkpt lat="43.58747" lon="-0.32221">
        <ele>200.049</ele>
        <time>2016-09-25T16:27:42Z</time>
      </trkpt>
      <trkpt lat="43.58651" lon="-0.32283">
        <ele>203.602</ele>
        <time>2016-09-25T16:28:02Z</time>
      </trkpt>
      <trkpt lat="43.58251" lon="-0.32364">
        <ele>196.922</ele>
        <time>2019-03-30T15:05:45Z</time>
      </trkpt>
      <trkpt lat="43.57919" lon="-0.32102">
        <ele>201</ele>
        <time>2019-03-30T15:06:05Z</time>
      </trkpt>
      <trkpt lat="43.5774" lon="-0.32131">
        <ele>203.09</ele>
        <time>2016-09-25T16:29:42Z</time>
      </trkpt>
      <trkpt lat="43.576" lon="-0.32397">
        <ele>204.867</ele>
        <time>2016-09-25T16:30:22Z</time>
      </trkpt>
      <trkpt lat="43.57524" lon="-0.32589">
        <ele>210.096</ele>
        <time>2019-03-30T15:07:05Z</time>
      </trkpt>
      <trkpt lat="43.57476" lon="-0.32657">
        <ele>210.095</ele>
        <time>2016-09-25T16:31:02Z</time>
      </trkpt>
      <trkpt lat="43.57538" lon="-0.32742">
        <ele>210.091</ele>
        <time>2016-09-25T16:31:22Z</time>
      </trkpt>
      <trkpt lat="43.57664" lon="-0.32781">
        <ele>206.632</ele>
        <time>2016-09-25T16:31:42Z</time>
      </trkpt>
      <trkpt lat="43.57692" lon="-0.32931">
        <ele>207.555</ele>
        <time>2016-09-25T16:32:02Z</time>
      </trkpt>
      <trkpt lat="43.57688" lon="-0.33045">
        <ele>201.534</ele>
        <time>2016-09-25T16:32:22Z</time>
      </trkpt>
      <trkpt lat="43.57732" lon="-0.33272">
        <ele>197.131</ele>
        <time>2016-09-25T16:32:42Z</time>
      </trkpt>
      <trkpt lat="43.57729" lon="-0.33384">
        <ele>192.761</ele>
        <time>2016-09-25T16:33:02Z</time>
      </trkpt>
      <trkpt lat="43.57749" lon="-0.33442">
        <ele>190.107</ele>
        <time>2016-09-25T16:33:22Z</time>
      </trkpt>
      <trkpt lat="43.5785" lon="-0.33622">
        <ele>183.608</ele>
        <time>2016-09-25T16:33:42Z</time>
      </trkpt>
      <trkpt lat="43.57856" lon="-0.33696">
        <ele>179.379</ele>
        <time>2019-03-30T15:10:25Z</time>
      </trkpt>
      <trkpt lat="43.57909" lon="-0.33787">
        <ele>167.686</ele>
        <time>2016-09-25T16:34:22Z</time>
      </trkpt>
      <trkpt lat="43.57995" lon="-0.33824">
        <ele>157.165</ele>
        <time>2019-03-30T15:11:05Z</time>
      </trkpt>
      <trkpt lat="43.58102" lon="-0.33837">
        <ele>144.434</ele>
        <time>2019-03-30T15:11:25Z</time>
      </trkpt>
      <trkpt lat="43.58127" lon="-0.33893">
        <ele>139.35</ele>
        <time>2016-09-25T16:35:02Z</time>
      </trkpt>
      <trkpt lat="43.58156" lon="-0.34013">
        <ele>136.481</ele>
        <time>2016-09-25T16:35:22Z</time>
      </trkpt>
      <trkpt lat="43.58161" lon="-0.34232">
        <ele>144.024</ele>
        <time>2016-09-25T16:35:42Z</time>
      </trkpt>
      <trkpt lat="43.58197" lon="-0.34354">
        <ele>141.613</ele>
        <time>2016-09-25T16:36:02Z</time>
      </trkpt>
      <trkpt lat="43.58212" lon="-0.34569">
        <ele>138.088</ele>
        <time>2019-03-30T15:13:05Z</time>
      </trkpt>
      <trkpt lat="43.58176" lon="-0.34647">
        <ele>133.724</ele>
        <time>2019-03-30T15:13:25Z</time>
      </trkpt>
      <trkpt lat="43.5824" lon="-0.34772">
        <ele>130.026</ele>
        <time>2016-09-25T16:37:02Z</time>
      </trkpt>
      <trkpt lat="43.58204" lon="-0.34938">
        <ele>133.708</ele>
        <time>2019-03-30T15:14:05Z</time>
      </trkpt>
      <trkpt lat="43.5829" lon="-0.34925">
        <ele>140.344</ele>
        <time>2016-09-25T16:37:42Z</time>
      </trkpt>
      <trkpt lat="43.58296" lon="-0.3506">
        <ele>147.351</ele>
        <time>2016-09-25T16:38:02Z</time>
      </trkpt>
      <trkpt lat="43.5838" lon="-0.35038">
        <ele>144.44</ele>
        <time>2016-09-25T16:38:22Z</time>
      </trkpt>
      <trkpt lat="43.5855" lon="-0.35056">
        <ele>134.959</ele>
        <time>2016-09-25T16:38:42Z</time>
      </trkpt>
      <trkpt lat="43.5862" lon="-0.35063">
        <ele>130.675</ele>
        <time>2019-03-30T15:15:45Z</time>
      </trkpt>
      <trkpt lat="43.58696" lon="-0.3506">
        <ele>132.196</ele>
        <time>2016-09-25T16:39:22Z</time>
      </trkpt>
      <trkpt lat="43.58815" lon="-0.35083">
        <ele>131.069</ele>
        <time>2019-03-30T15:16:25Z</time>
      </trkpt>
      <trkpt lat="43.58944" lon="-0.35075">
        <ele>127.728</ele>
        <time>2016-09-25T16:40:02Z</time>
      </trkpt>
      <trkpt lat="43.58687" lon="-0.35901">
        <ele>165.159</ele>
        <time>2019-03-30T15:17:05Z</time>
      </trkpt>
      <trkpt lat="43.58691" lon="-0.36145">
        <ele>173.903</ele>
        <time>2019-03-30T15:17:25Z</time>
      </trkpt>
      <trkpt lat="43.58687" lon="-0.36273">
        <ele>176.523</ele>
        <time>2019-03-30T15:17:45Z</time>
      </trkpt>
      <trkpt lat="43.58711" lon="-0.36478">
        <ele>182.108</ele>
        <time>2016-09-25T16:41:22Z</time>
      </trkpt>
      <trkpt lat="43.58838" lon="-0.36553">
        <ele>184.251</ele>
        <time>2019-03-30T15:18:25Z</time>
      </trkpt>
      <trkpt lat="43.58623" lon="-0.36697">
        <ele>156.958</ele>
        <time>2016-09-25T16:42:02Z</time>
      </trkpt>
      <trkpt lat="43.58492" lon="-0.36832">
        <ele>157.037</ele>
        <time>2016-09-25T16:42:42Z</time>
      </trkpt>
      <trkpt lat="43.58239" lon="-0.37118">
        <ele>141.386</ele>
        <time>2016-09-25T16:43:42Z</time>
      </trkpt>
      <trkpt lat="43.57956" lon="-0.37229">
        <ele>174.352</ele>
        <time>2016-09-25T16:44:02Z</time>
      </trkpt>
      <trkpt lat="43.57884" lon="-0.37328">
        <ele>170.726</ele>
        <time>2016-09-25T16:44:42Z</time>
      </trkpt>
      <trkpt lat="43.57785" lon="-0.37433">
        <ele>154.945</ele>
        <time>2016-09-25T16:45:02Z</time>
      </trkpt>
      <trkpt lat="43.57748" lon="-0.37568">
        <ele>172.235</ele>
        <time>2016-09-25T16:45:22Z</time>
      </trkpt>
      <trkpt lat="43.57625" lon="-0.37583">
        <ele>181.086</ele>
        <time>2016-09-25T16:45:42Z</time>
      </trkpt>
      <trkpt lat="43.57536" lon="-0.37625">
        <ele>190.514</ele>
        <time>2019-03-30T15:21:45Z</time>
      </trkpt>
      <trkpt lat="43.57514" lon="-0.37603">
        <ele>192.908</ele>
        <time>2019-03-30T15:22:05Z</time>
      </trkpt>
      <trkpt lat="43.57476" lon="-0.37549">
        <ele>194.199</ele>
        <time>2019-03-30T15:22:25Z</time>
      </trkpt>
      <trkpt lat="43.57455" lon="-0.37445">
        <ele>188.016</ele>
        <time>2019-03-30T15:22:45Z</time>
      </trkpt>
      <trkpt lat="43.57405" lon="-0.37293">
        <ele>190.315</ele>
        <time>2019-03-30T15:23:05Z</time>
      </trkpt>
      <trkpt lat="43.57357" lon="-0.37245">
        <ele>182.174</ele>
        <time>2019-03-30T15:23:25Z</time>
      </trkpt>
      <trkpt lat="43.5734" lon="-0.37188">
        <ele>182.64</ele>
        <time>2019-03-30T15:23:45Z</time>
      </trkpt>
      <trkpt lat="43.57279" lon="-0.37037">
        <ele>173.521</ele>
        <time>2019-03-30T15:24:05Z</time>
      </trkpt>
      <trkpt lat="43.57287" lon="-0.37155">
        <ele>162.124</ele>
        <time>2019-03-30T15:24:25Z</time>
      </trkpt>
      <trkpt lat="43.57282" lon="-0.37214">
        <ele>152.283</ele>
        <time>2019-03-30T15:24:45Z</time>
      </trkpt>
      <trkpt lat="43.57294" lon="-0.37268">
        <ele>149.815</ele>
        <time>2019-03-30T15:25:05Z</time>
      </trkpt>
      <trkpt lat="43.57286" lon="-0.37326">
        <ele>141.065</ele>
        <time>2019-03-30T15:25:25Z</time>
      </trkpt>
      <trkpt lat="43.57252" lon="-0.37401">
        <ele>124.211</ele>
        <time>2016-09-25T16:48:22Z</time>
      </trkpt>
      <trkpt lat="43.57254" lon="-0.37471">
        <ele>120.208</ele>
        <time>2019-03-30T15:26:05Z</time>
      </trkpt>
      <trkpt lat="43.57187" lon="-0.375">
        <ele>115.067</ele>
        <time>2019-03-30T15:26:25Z</time>
      </trkpt>
      <trkpt lat="43.57139" lon="-0.37504">
        <ele>114.764</ele>
        <time>2019-03-30T15:26:45Z</time>
      </trkpt>
      <trkpt lat="43.57102" lon="-0.37558">
        <ele>113.033</ele>
        <time>2019-03-30T15:27:05Z</time>
      </trkpt>
      <trkpt lat="43.57018" lon="-0.37606">
        <ele>113.032</ele>
        <time>2019-03-30T15:27:25Z</time>
      </trkpt>
      <trkpt lat="43.56928" lon="-0.37641">
        <ele>112.938</ele>
        <time>2019-03-30T15:27:45Z</time>
      </trkpt>
      <trkpt lat="43.5683" lon="-0.37749">
        <ele>110.929</ele>
        <time>2019-03-30T15:28:05Z</time>
      </trkpt>
      <trkpt lat="43.56812" lon="-0.37809">
        <ele>110.082</ele>
        <time>2019-03-30T15:28:25Z</time>
      </trkpt>
      <trkpt lat="43.56625" lon="-0.37965">
        <ele>116.561</ele>
        <time>2016-09-25T16:51:02Z</time>
      </trkpt>
      <trkpt lat="43.56524" lon="-0.37993">
        <ele>119.115</ele>
        <time>2016-09-25T16:51:22Z</time>
      </trkpt>
      <trkpt lat="43.56395" lon="-0.38088">
        <ele>125.765</ele>
        <time>2016-09-25T16:51:42Z</time>
      </trkpt>
      <trkpt lat="43.56247" lon="-0.3818">
        <ele>129.211</ele>
        <time>2016-09-25T16:52:02Z</time>
      </trkpt>
      <trkpt lat="43.56167" lon="-0.38271">
        <ele>134.708</ele>
        <time>2019-03-30T15:30:05Z</time>
      </trkpt>
      <trkpt lat="43.56079" lon="-0.38345">
        <ele>145.027</ele>
        <time>2016-09-25T16:52:42Z</time>
      </trkpt>
      <trkpt lat="43.56014" lon="-0.38386">
        <ele>152.394</ele>
        <time>2016-09-25T16:53:02Z</time>
      </trkpt>
      <trkpt lat="43.56014" lon="-0.38386">
        <ele>152.394</ele>
        <time>2016-09-25T16:53:02Z</time>
      </trkpt>
      <trkpt lat="43.55902" lon="-0.38519">
        <ele>171.393</ele>
        <time>2016-09-25T16:53:22Z</time>
      </trkpt>
      <trkpt lat="43.55809" lon="-0.38656">
        <ele>177.942</ele>
        <time>2019-03-30T15:31:25Z</time>
      </trkpt>
      <trkpt lat="43.55831" lon="-0.38685">
        <ele>177.748</ele>
        <time>2019-03-30T15:31:45Z</time>
      </trkpt>
      <trkpt lat="43.55783" lon="-0.38847">
        <ele>179.999</ele>
        <time>2019-03-30T15:32:05Z</time>
      </trkpt>
      <trkpt lat="43.55646" lon="-0.38957">
        <ele>181.032</ele>
        <time>2016-09-25T16:54:42Z</time>
      </trkpt>
      <trkpt lat="43.5561" lon="-0.39152">
        <ele>181.091</ele>
        <time>2016-09-25T16:55:02Z</time>
      </trkpt>
      <trkpt lat="43.55551" lon="-0.3933">
        <ele>180.959</ele>
        <time>2016-09-25T16:55:22Z</time>
      </trkpt>
      <trkpt lat="43.5551" lon="-0.39356">
        <ele>179.203</ele>
        <time>2016-09-25T16:55:42Z</time>
      </trkpt>
      <trkpt lat="43.55429" lon="-0.39551">
        <ele>181.023</ele>
        <time>2016-09-25T16:56:02Z</time>
      </trkpt>
      <trkpt lat="43.55223" lon="-0.39482">
        <ele>184.008</ele>
        <time>2016-09-25T16:56:22Z</time>
      </trkpt>
      <trkpt lat="43.55183" lon="-0.39496">
        <ele>184.431</ele>
        <time>2019-03-30T15:34:25Z</time>
      </trkpt>
      <trkpt lat="43.55108" lon="-0.39607">
        <ele>185.068</ele>
        <time>2019-03-30T15:34:45Z</time>
      </trkpt>
      <trkpt lat="43.5494" lon="-0.39459">
        <ele>185.037</ele>
        <time>2016-09-25T16:57:42Z</time>
      </trkpt>
      <trkpt lat="43.54888" lon="-0.39375">
        <ele>185.046</ele>
        <time>2016-09-25T16:58:02Z</time>
      </trkpt>
      <trkpt lat="43.54555" lon="-0.39834">
        <ele>180.082</ele>
        <time>2016-09-25T16:58:22Z</time>
      </trkpt>
      <trkpt lat="43.54402" lon="-0.4008">
        <ele>185.493</ele>
        <time>2021-01-03T17:23:00Z</time>
      </trkpt>
      <trkpt lat="43.54047" lon="-0.39834">
        <ele>186.366</ele>
        <time>2021-01-03T17:23:20Z</time>
      </trkpt>
      <trkpt lat="43.53917" lon="-0.40211">
        <ele>197.145</ele>
        <time>2021-01-03T17:23:40Z</time>
      </trkpt>
      <trkpt lat="43.53768" lon="-0.40487">
        <ele>221.926</ele>
        <time>2021-01-03T17:24:00Z</time>
      </trkpt>
      <trkpt lat="43.53717" lon="-0.40487">
        <ele>226.147</ele>
        <time>2021-01-03T17:24:20Z</time>
      </trkpt>
      <trkpt lat="43.53649" lon="-0.40566">
        <ele>235.011</ele>
        <time>2021-01-03T17:24:40Z</time>
      </trkpt>
      <trkpt lat="43.53609" lon="-0.40854">
        <ele>235.008</ele>
        <time>2021-01-03T17:25:00Z</time>
      </trkpt>
      <trkpt lat="43.53618" lon="-0.40985">
        <ele>232.3</ele>
        <time>2021-01-03T17:25:20Z</time>
      </trkpt>
      <trkpt lat="43.53553" lon="-0.41182">
        <ele>234.6</ele>
        <time>2021-01-03T17:25:40Z</time>
      </trkpt>
      <trkpt lat="43.53636" lon="-0.41381">
        <ele>233</ele>
        <time>2021-01-03T17:26:00Z</time>
      </trkpt>
      <trkpt lat="43.53584" lon="-0.41388">
        <ele>235.053</ele>
        <time>2021-01-03T17:26:20Z</time>
      </trkpt>
      <trkpt lat="43.53507" lon="-0.41414">
        <ele>230.8</ele>
        <time>2021-01-03T17:26:40Z</time>
      </trkpt>
      <trkpt lat="43.53464" lon="-0.41462">
        <ele>230.11</ele>
        <time>2021-01-03T17:27:00Z</time>
      </trkpt>
      <trkpt lat="43.53431" lon="-0.41654">
        <ele>214.523</ele>
        <time>2021-01-03T17:27:20Z</time>
      </trkpt>
      <trkpt lat="43.53569" lon="-0.41755">
        <ele>215.672</ele>
        <time>2021-01-03T17:27:40Z</time>
      </trkpt>
      <trkpt lat="43.53555" lon="-0.41824">
        <ele>210.675</ele>
        <time>2021-01-03T17:28:00Z</time>
      </trkpt>
      <trkpt lat="43.53354" lon="-0.42007">
        <ele>209.128</ele>
        <time>2021-01-03T17:28:20Z</time>
      </trkpt>
      <trkpt lat="43.53239" lon="-0.41847">
        <ele>212.92</ele>
        <time>2021-01-03T17:28:40Z</time>
      </trkpt>
      <trkpt lat="43.53209" lon="-0.41715">
        <ele>210.908</ele>
        <time>2021-01-03T17:29:00Z</time>
      </trkpt>
      <trkpt lat="43.5318" lon="-0.41617">
        <ele>208.333</ele>
        <time>2021-01-03T17:29:20Z</time>
      </trkpt>
      <trkpt lat="43.53135" lon="-0.4166">
        <ele>225.11</ele>
        <time>2019-03-30T15:44:45Z</time>
      </trkpt>
      <trkpt lat="43.53015" lon="-0.41725">
        <ele>235.079</ele>
        <time>2019-03-30T15:45:05Z</time>
      </trkpt>
      <trkpt lat="43.52872" lon="-0.41906">
        <ele>235.078</ele>
        <time>2019-03-30T15:45:25Z</time>
      </trkpt>
      <trkpt lat="43.52732" lon="-0.42009">
        <ele>236.364</ele>
        <time>2019-03-30T15:45:45Z</time>
      </trkpt>
      <trkpt lat="43.52629" lon="-0.42553">
        <ele>227.515</ele>
        <time>2019-03-30T15:46:05Z</time>
      </trkpt>
      <trkpt lat="43.52551" lon="-0.42691">
        <ele>214.778</ele>
        <time>2019-03-30T15:46:25Z</time>
      </trkpt>
      <trkpt lat="43.52488" lon="-0.42785">
        <ele>204.757</ele>
        <time>2019-03-30T15:46:45Z</time>
      </trkpt>
      <trkpt lat="43.52437" lon="-0.42952">
        <ele>200.744</ele>
        <time>2019-03-30T15:47:05Z</time>
      </trkpt>
      <trkpt lat="43.52292" lon="-0.43227">
        <ele>173.805</ele>
        <time>2019-03-30T15:47:25Z</time>
      </trkpt>
      <trkpt lat="43.52282" lon="-0.43292">
        <ele>170.715</ele>
        <time>2019-03-30T15:47:45Z</time>
      </trkpt>
      <trkpt lat="43.52177" lon="-0.43473">
        <ele>163.108</ele>
        <time>2019-03-30T15:48:05Z</time>
      </trkpt>
      <trkpt lat="43.52099" lon="-0.43572">
        <ele>147.97</ele>
        <time>2019-03-30T15:48:25Z</time>
      </trkpt>
      <trkpt lat="43.51967" lon="-0.43708">
        <ele>128.387</ele>
        <time>2019-03-30T15:48:45Z</time>
      </trkpt>
      <trkpt lat="43.51934" lon="-0.43787">
        <ele>118.336</ele>
        <time>2019-03-30T15:49:05Z</time>
      </trkpt>
      <trkpt lat="43.51861" lon="-0.43818">
        <ele>110.245</ele>
        <time>2019-03-30T15:49:25Z</time>
      </trkpt>
      <trkpt lat="43.51814" lon="-0.43809">
        <ele>107.591</ele>
        <time>2019-03-30T15:49:45Z</time>
      </trkpt>
      <trkpt lat="43.51742" lon="-0.43867">
        <ele>105.052</ele>
        <time>2019-03-30T15:50:05Z</time>
      </trkpt>
      <trkpt lat="43.51678" lon="-0.43994">
        <ele>102.035</ele>
        <time>2019-03-30T15:50:25Z</time>
      </trkpt>
      <trkpt lat="43.51661" lon="-0.44059">
        <ele>102.074</ele>
        <time>2019-03-30T15:50:45Z</time>
      </trkpt>
      <trkpt lat="43.51626" lon="-0.44113">
        <ele>102.036</ele>
        <time>2019-03-30T15:51:05Z</time>
      </trkpt>
      <trkpt lat="43.51618" lon="-0.44117">
        <ele>102.017</ele>
        <time>2016-09-25T17:14:22Z</time>
      </trkpt>
      <trkpt lat="43.51467" lon="-0.44081">
        <ele>105.018</ele>
        <time>2016-09-25T17:14:42Z</time>
      </trkpt>
      <trkpt lat="43.51431" lon="-0.441">
        <ele>105.008</ele>
        <time>2016-09-25T17:15:02Z</time>
      </trkpt>
      <trkpt lat="43.51262" lon="-0.44306">
        <ele>108.039</ele>
        <time>2016-09-25T17:15:22Z</time>
      </trkpt>
      <trkpt lat="43.51234" lon="-0.4439">
        <ele>109.076</ele>
        <time>2016-09-25T17:15:42Z</time>
      </trkpt>
      <trkpt lat="43.51167" lon="-0.44368">
        <ele>109.095</ele>
        <time>2016-09-25T17:16:02Z</time>
      </trkpt>
      <trkpt lat="43.5105" lon="-0.44437">
        <ele>114.954</ele>
        <time>2016-09-25T17:16:22Z</time>
      </trkpt>
      <trkpt lat="43.5106" lon="-0.44513">
        <ele>121.4</ele>
        <time>2016-09-25T17:16:42Z</time>
      </trkpt>
      <trkpt lat="43.51025" lon="-0.4457">
        <ele>133.9</ele>
        <time>2016-09-25T17:17:02Z</time>
      </trkpt>
      <trkpt lat="43.51013" lon="-0.44664">
        <ele>143.034</ele>
        <time>2016-09-25T17:17:22Z</time>
      </trkpt>
      <trkpt lat="43.50993" lon="-0.44795">
        <ele>155.813</ele>
        <time>2016-09-25T17:17:42Z</time>
      </trkpt>
      <trkpt lat="43.5098" lon="-0.44963">
        <ele>169.544</ele>
        <time>2016-09-25T17:18:02Z</time>
      </trkpt>
      <trkpt lat="43.50938" lon="-0.45177">
        <ele>172.505</ele>
        <time>2016-09-25T17:18:22Z</time>
      </trkpt>
      <trkpt lat="43.50888" lon="-0.45194">
        <ele>165.915</ele>
        <time>2016-09-25T17:18:42Z</time>
      </trkpt>
      <trkpt lat="43.50783" lon="-0.45171">
        <ele>160.4</ele>
        <time>2016-09-25T17:19:02Z</time>
      </trkpt>
      <trkpt lat="43.50719" lon="-0.45269">
        <ele>159.78</ele>
        <time>2016-09-25T17:19:22Z</time>
      </trkpt>
      <trkpt lat="43.50632" lon="-0.45267">
        <ele>150.397</ele>
        <time>2016-09-25T17:19:42Z</time>
      </trkpt>
      <trkpt lat="43.50588" lon="-0.45147">
        <ele>145.916</ele>
        <time>2016-09-25T17:20:02Z</time>
      </trkpt>
      <trkpt lat="43.50502" lon="-0.44999">
        <ele>157.515</ele>
        <time>2016-09-25T17:20:22Z</time>
      </trkpt>
      <trkpt lat="43.50379" lon="-0.45059">
        <ele>173.361</ele>
        <time>2016-09-25T17:20:42Z</time>
      </trkpt>
      <trkpt lat="43.50295" lon="-0.45057">
        <ele>177.452</ele>
        <time>2016-09-25T17:21:02Z</time>
      </trkpt>
      <trkpt lat="43.50221" lon="-0.45061">
        <ele>188.975</ele>
        <time>2016-09-25T17:21:22Z</time>
      </trkpt>
      <trkpt lat="43.50163" lon="-0.45038">
        <ele>198.524</ele>
        <time>2016-09-25T17:21:42Z</time>
      </trkpt>
      <trkpt lat="43.50092" lon="-0.44922">
        <ele>198.913</ele>
        <time>2016-09-25T17:22:02Z</time>
      </trkpt>
      <trkpt lat="43.49972" lon="-0.44885">
        <ele>203.543</ele>
        <time>2016-09-25T17:22:22Z</time>
      </trkpt>
      <trkpt lat="43.49891" lon="-0.44763">
        <ele>199.107</ele>
        <time>2016-09-25T17:22:42Z</time>
      </trkpt>
      <trkpt lat="43.49852" lon="-0.44772">
        <ele>201.308</ele>
        <time>2016-09-25T17:23:02Z</time>
      </trkpt>
      <trkpt lat="43.4981" lon="-0.44799">
        <ele>205.887</ele>
        <time>2016-09-25T17:23:22Z</time>
      </trkpt>
      <trkpt lat="43.49751" lon="-0.44767">
        <ele>212.954</ele>
        <time>2016-09-25T17:23:42Z</time>
      </trkpt>
      <trkpt lat="43.49729" lon="-0.44701">
        <ele>220.333</ele>
        <time>2016-09-25T17:24:02Z</time>
      </trkpt>
      <trkpt lat="43.49721" lon="-0.44619">
        <ele>224.012</ele>
        <time>2016-09-25T17:24:22Z</time>
      </trkpt>
      <trkpt lat="43.49673" lon="-0.44572">
        <ele>226.048</ele>
        <time>2016-09-25T17:24:42Z</time>
      </trkpt>
      <trkpt lat="43.49514" lon="-0.44392">
        <ele>226.849</ele>
        <time>2016-09-25T17:25:02Z</time>
      </trkpt>
      <trkpt lat="43.49425" lon="-0.44353">
        <ele>215.862</ele>
        <time>2016-09-25T17:25:22Z</time>
      </trkpt>
      <trkpt lat="43.4938" lon="-0.44284">
        <ele>209.721</ele>
        <time>2016-09-25T17:25:42Z</time>
      </trkpt>
      <trkpt lat="43.49293" lon="-0.44257">
        <ele>203.916</ele>
        <time>2016-09-25T17:26:02Z</time>
      </trkpt>
      <trkpt lat="43.49232" lon="-0.44261">
        <ele>207.776</ele>
        <time>2016-09-25T17:26:22Z</time>
      </trkpt>
      <trkpt lat="43.49007" lon="-0.43971">
        <ele>225.013</ele>
        <time>2016-09-25T17:26:42Z</time>
      </trkpt>
      <trkpt lat="43.48927" lon="-0.4381">
        <ele>231.008</ele>
        <time>2016-09-25T17:27:02Z</time>
      </trkpt>
      <trkpt lat="43.48926" lon="-0.43752">
        <ele>232.437</ele>
        <time>2016-09-25T17:27:22Z</time>
      </trkpt>
      <trkpt lat="43.48901" lon="-0.43619">
        <ele>234.624</ele>
        <time>2016-09-25T17:27:42Z</time>
      </trkpt>
      <trkpt lat="43.4884" lon="-0.43686">
        <ele>230.743</ele>
        <time>2016-09-25T17:28:02Z</time>
      </trkpt>
      <trkpt lat="43.48814" lon="-0.43789">
        <ele>218.322</ele>
        <time>2016-09-25T17:28:22Z</time>
      </trkpt>
      <trkpt lat="43.4881" lon="-0.43986">
        <ele>201.768</ele>
        <time>2016-09-25T17:28:42Z</time>
      </trkpt>
      <trkpt lat="43.48809" lon="-0.44095">
        <ele>184.839</ele>
        <time>2019-03-30T16:06:05Z</time>
      </trkpt>
      <trkpt lat="43.48776" lon="-0.44151">
        <ele>188.482</ele>
        <time>2016-09-25T17:29:22Z</time>
      </trkpt>
      <trkpt lat="43.48806" lon="-0.44246">
        <ele>189.181</ele>
        <time>2016-09-25T17:29:42Z</time>
      </trkpt>
      <trkpt lat="43.48759" lon="-0.44212">
        <ele>200.523</ele>
        <time>2016-09-25T17:30:02Z</time>
      </trkpt>
      <trkpt lat="43.48725" lon="-0.44254">
        <ele>207.283</ele>
        <time>2016-09-25T17:30:22Z</time>
      </trkpt>
      <trkpt lat="43.48658" lon="-0.44276">
        <ele>223.011</ele>
        <time>2016-09-25T17:30:42Z</time>
      </trkpt>
      <trkpt lat="43.48653" lon="-0.44342">
        <ele>233.408</ele>
        <time>2016-09-25T17:31:02Z</time>
      </trkpt>
      <trkpt lat="43.4861" lon="-0.4446">
        <ele>240.068</ele>
        <time>2016-09-25T17:31:22Z</time>
      </trkpt>
      <trkpt lat="43.48608" lon="-0.44561">
        <ele>240.065</ele>
        <time>2016-09-25T17:31:42Z</time>
      </trkpt>
      <trkpt lat="43.48566" lon="-0.44677">
        <ele>240.624</ele>
        <time>2016-09-25T17:32:02Z</time>
      </trkpt>
      <trkpt lat="43.48533" lon="-0.44799">
        <ele>245.083</ele>
        <time>2016-09-25T17:32:22Z</time>
      </trkpt>
      <trkpt lat="43.48506" lon="-0.44855">
        <ele>244</ele>
        <time>2016-09-25T17:32:42Z</time>
      </trkpt>
      <trkpt lat="43.48466" lon="-0.44821">
        <ele>245.08</ele>
        <time>2016-09-25T17:33:02Z</time>
      </trkpt>
      <trkpt lat="43.48384" lon="-0.4481">
        <ele>245.063</ele>
        <time>2016-09-25T17:33:22Z</time>
      </trkpt>
      <trkpt lat="43.48359" lon="-0.44909">
        <ele>241.872</ele>
        <time>2016-09-25T17:33:42Z</time>
      </trkpt>
      <trkpt lat="43.48378" lon="-0.45278">
        <ele>220.889</ele>
        <time>2016-09-25T17:34:02Z</time>
      </trkpt>
      <trkpt lat="43.48345" lon="-0.45538">
        <ele>212.006</ele>
        <time>2016-09-25T17:34:22Z</time>
      </trkpt>
      <trkpt lat="43.48346" lon="-0.45619">
        <ele>209.226</ele>
        <time>2016-09-25T17:34:42Z</time>
      </trkpt>
      <trkpt lat="43.48314" lon="-0.45802">
        <ele>206.208</ele>
        <time>2016-09-25T17:35:02Z</time>
      </trkpt>
      <trkpt lat="43.48297" lon="-0.45971">
        <ele>206.444</ele>
        <time>2016-09-25T17:35:22Z</time>
      </trkpt>
      <trkpt lat="43.48262" lon="-0.46014">
        <ele>207.441</ele>
        <time>2016-09-25T17:35:42Z</time>
      </trkpt>
      <trkpt lat="43.48216" lon="-0.46156">
        <ele>202.95</ele>
        <time>2016-09-25T17:36:02Z</time>
      </trkpt>
      <trkpt lat="43.48231" lon="-0.46226">
        <ele>201.959</ele>
        <time>2016-09-25T17:36:22Z</time>
      </trkpt>
      <trkpt lat="43.48223" lon="-0.46317">
        <ele>204.925</ele>
        <time>2016-09-25T17:36:42Z</time>
      </trkpt>
      <trkpt lat="43.48231" lon="-0.46394">
        <ele>205.026</ele>
        <time>2016-09-25T17:37:02Z</time>
      </trkpt>
      <trkpt lat="43.48214" lon="-0.46542">
        <ele>193.359</ele>
        <time>2016-09-25T17:37:22Z</time>
      </trkpt>
      <trkpt lat="43.48113" lon="-0.46632">
        <ele>180.878</ele>
        <time>2016-09-25T17:37:42Z</time>
      </trkpt>
      <trkpt lat="43.48052" lon="-0.46733">
        <ele>174.021</ele>
        <time>2016-09-25T17:38:02Z</time>
      </trkpt>
      <trkpt lat="43.48074" lon="-0.46889">
        <ele>161.341</ele>
        <time>2016-09-25T17:38:22Z</time>
      </trkpt>
      <trkpt lat="43.48063" lon="-0.47061">
        <ele>141.705</ele>
        <time>2016-09-25T17:38:42Z</time>
      </trkpt>
      <trkpt lat="43.47928" lon="-0.47355">
        <ele>126.008</ele>
        <time>2016-09-25T17:39:02Z</time>
      </trkpt>
      <trkpt lat="43.47906" lon="-0.47434">
        <ele>124.078</ele>
        <time>2016-09-25T17:39:22Z</time>
      </trkpt>
      <trkpt lat="43.47795" lon="-0.47544">
        <ele>121.325</ele>
        <time>2016-09-25T17:39:42Z</time>
      </trkpt>
      <trkpt lat="43.47523" lon="-0.47683">
        <ele>115.074</ele>
        <time>2016-09-25T17:40:02Z</time>
      </trkpt>
      <trkpt lat="43.47478" lon="-0.47851">
        <ele>113.093</ele>
        <time>2016-09-25T17:40:22Z</time>
      </trkpt>
      <trkpt lat="43.47412" lon="-0.47999">
        <ele>111.079</ele>
        <time>2016-09-25T17:40:42Z</time>
      </trkpt>
      <trkpt lat="43.47331" lon="-0.47973">
        <ele>110.94</ele>
        <time>2016-09-25T17:41:02Z</time>
      </trkpt>
      <trkpt lat="43.47208" lon="-0.47988">
        <ele>110.093</ele>
        <time>2016-09-25T17:41:22Z</time>
      </trkpt>
      <trkpt lat="43.47107" lon="-0.47947">
        <ele>110.342</ele>
        <time>2016-09-25T17:41:42Z</time>
      </trkpt>
      <trkpt lat="43.47087" lon="-0.47969">
        <ele>111.026</ele>
        <time>2016-09-25T17:42:02Z</time>
      </trkpt>
      <trkpt lat="43.47084" lon="-0.48014">
        <ele>113.047</ele>
        <time>2016-09-25T17:42:22Z</time>
      </trkpt>
      <trkpt lat="43.47" lon="-0.48025">
        <ele>122.711</ele>
        <time>2016-09-25T17:42:42Z</time>
      </trkpt>
      <trkpt lat="43.46973" lon="-0.4801">
        <ele>123.608</ele>
        <time>2016-09-25T17:43:02Z</time>
      </trkpt>
      <trkpt lat="43.46911" lon="-0.48016">
        <ele>132.218</ele>
        <time>2016-09-25T17:43:22Z</time>
      </trkpt>
      <trkpt lat="43.46889" lon="-0.48044">
        <ele>138.155</ele>
        <time>2016-09-25T17:43:42Z</time>
      </trkpt>
      <trkpt lat="43.46803" lon="-0.48078">
        <ele>140.064</ele>
        <time>2016-09-25T17:44:02Z</time>
      </trkpt>
      <trkpt lat="43.46719" lon="-0.48145">
        <ele>140.033</ele>
        <time>2016-09-25T17:44:22Z</time>
      </trkpt>
      <trkpt lat="43.46905" lon="-0.48477">
        <ele>140.089</ele>
        <time>2016-09-25T17:44:42Z</time>
      </trkpt>
      <trkpt lat="43.46912" lon="-0.48537">
        <ele>140.07</ele>
        <time>2016-09-25T17:45:02Z</time>
      </trkpt>
      <trkpt lat="43.46962" lon="-0.48604">
        <ele>140.043</ele>
        <time>2016-09-25T17:45:22Z</time>
      </trkpt>
      <trkpt lat="43.47043" lon="-0.4858">
        <ele>140.072</ele>
        <time>2016-09-25T17:45:42Z</time>
      </trkpt>
      <trkpt lat="43.47124" lon="-0.48664">
        <ele>140.048</ele>
        <time>2016-09-25T17:46:02Z</time>
      </trkpt>
      <trkpt lat="43.47202" lon="-0.48726">
        <ele>140.061</ele>
        <time>2016-09-25T17:46:22Z</time>
      </trkpt>
      <trkpt lat="43.47353" lon="-0.48962">
        <ele>137.117</ele>
        <time>2016-09-25T17:46:42Z</time>
      </trkpt>
      <trkpt lat="43.47464" lon="-0.49082">
        <ele>135.008</ele>
        <time>2016-09-25T17:47:02Z</time>
      </trkpt>
      <trkpt lat="43.4752" lon="-0.49134">
        <ele>134.87</ele>
        <time>2016-09-25T17:47:22Z</time>
      </trkpt>
      <trkpt lat="43.47663" lon="-0.49359">
        <ele>122.767</ele>
        <time>2016-09-25T17:47:42Z</time>
      </trkpt>
      <trkpt lat="43.47677" lon="-0.49469">
        <ele>116.436</ele>
        <time>2016-09-25T17:48:02Z</time>
      </trkpt>
      <trkpt lat="43.47753" lon="-0.49582">
        <ele>109.095</ele>
        <time>2016-09-25T17:48:22Z</time>
      </trkpt>
      <trkpt lat="43.4783" lon="-0.49748">
        <ele>109.011</ele>
        <time>2016-09-25T17:48:42Z</time>
      </trkpt>
      <trkpt lat="43.47836" lon="-0.49818">
        <ele>109.022</ele>
        <time>2016-09-25T17:49:02Z</time>
      </trkpt>
      <trkpt lat="43.4783" lon="-0.49879">
        <ele>110.195</ele>
        <time>2016-09-25T17:49:22Z</time>
      </trkpt>
      <trkpt lat="43.47872" lon="-0.49924">
        <ele>109.774</ele>
        <time>2016-09-25T17:49:42Z</time>
      </trkpt>
      <trkpt lat="43.47894" lon="-0.49995">
        <ele>112.8</ele>
        <time>2016-09-25T17:50:02Z</time>
      </trkpt>
      <trkpt lat="43.47887" lon="-0.50093">
        <ele>115.865</ele>
        <time>2016-09-25T17:50:22Z</time>
      </trkpt>
      <trkpt lat="43.47865" lon="-0.50168">
        <ele>122.911</ele>
        <time>2016-09-25T17:50:42Z</time>
      </trkpt>
      <trkpt lat="43.47912" lon="-0.50245">
        <ele>127.708</ele>
        <time>2016-09-25T17:51:02Z</time>
      </trkpt>
      <trkpt lat="43.47928" lon="-0.5031">
        <ele>131.817</ele>
        <time>2016-09-25T17:51:22Z</time>
      </trkpt>
      <trkpt lat="43.48024" lon="-0.50342">
        <ele>131.474</ele>
        <time>2016-09-25T17:51:42Z</time>
      </trkpt>
      <trkpt lat="43.48018" lon="-0.50392">
        <ele>132.4</ele>
        <time>2016-09-25T17:52:02Z</time>
      </trkpt>
      <trkpt lat="43.47976" lon="-0.50496">
        <ele>132.962</ele>
        <time>2016-09-25T17:52:22Z</time>
      </trkpt>
      <trkpt lat="43.47988" lon="-0.50638">
        <ele>134.678</ele>
        <time>2016-09-25T17:52:42Z</time>
      </trkpt>
      <trkpt lat="43.47886" lon="-0.50756">
        <ele>135.099</ele>
        <time>2016-09-25T17:53:02Z</time>
      </trkpt>
      <trkpt lat="43.48018" lon="-0.51106">
        <ele>134.042</ele>
        <time>2016-09-25T17:53:22Z</time>
      </trkpt>
      <trkpt lat="43.4802" lon="-0.51157">
        <ele>134.391</ele>
        <time>2016-09-25T17:53:42Z</time>
      </trkpt>
      <trkpt lat="43.4804" lon="-0.51213">
        <ele>133.626</ele>
        <time>2016-09-25T17:54:02Z</time>
      </trkpt>
      <trkpt lat="43.4827" lon="-0.51438">
        <ele>130.047</ele>
        <time>2016-09-25T17:54:22Z</time>
      </trkpt>
      <trkpt lat="43.48368" lon="-0.5152">
        <ele>130.011</ele>
        <time>2016-09-25T17:54:42Z</time>
      </trkpt>
      <trkpt lat="43.48191" lon="-0.51778">
        <ele>117.008</ele>
        <time>2016-09-25T17:55:02Z</time>
      </trkpt>
      <trkpt lat="43.48111" lon="-0.51962">
        <ele>115.648</ele>
        <time>2016-09-25T17:55:22Z</time>
      </trkpt>
      <trkpt lat="43.4806" lon="-0.51986">
        <ele>118.435</ele>
        <time>2016-09-25T17:55:42Z</time>
      </trkpt>
      <trkpt lat="43.4801" lon="-0.51975">
        <ele>118.214</ele>
        <time>2016-09-25T17:56:02Z</time>
      </trkpt>
      <trkpt lat="43.47984" lon="-0.52007">
        <ele>124.813</ele>
        <time>2016-09-25T17:56:22Z</time>
      </trkpt>
      <trkpt lat="43.47987" lon="-0.52093">
        <ele>130.279</ele>
        <time>2016-09-25T17:56:42Z</time>
      </trkpt>
      <trkpt lat="43.47982" lon="-0.52181">
        <ele>131.89</ele>
        <time>2016-09-25T17:57:02Z</time>
      </trkpt>
      <trkpt lat="43.48202" lon="-0.52112">
        <ele>130.083</ele>
        <time>2016-09-25T17:57:22Z</time>
      </trkpt>
      <trkpt lat="43.48259" lon="-0.52134">
        <ele>130.812</ele>
        <time>2016-09-25T17:57:42Z</time>
      </trkpt>
      <trkpt lat="43.48294" lon="-0.5225">
        <ele>131.047</ele>
        <time>2016-09-25T17:58:22Z</time>
      </trkpt>
      <trkpt lat="43.48304" lon="-0.52316">
        <ele>132.011</ele>
        <time>2016-09-25T17:58:42Z</time>
      </trkpt>
      <trkpt lat="43.48345" lon="-0.52393">
        <ele>132.008</ele>
        <time>2016-09-25T17:59:02Z</time>
      </trkpt>
      <trkpt lat="43.48606" lon="-0.52728">
        <ele>130.868</ele>
        <time>2016-09-25T17:59:22Z</time>
      </trkpt>
      <trkpt lat="43.48647" lon="-0.52829">
        <ele>130.065</ele>
        <time>2016-09-25T17:59:42Z</time>
      </trkpt>
      <trkpt lat="43.48748" lon="-0.5299">
        <ele>130.094</ele>
        <time>2016-09-25T18:00:02Z</time>
      </trkpt>
      <trkpt lat="43.48782" lon="-0.53099">
        <ele>130.033</ele>
        <time>2016-09-25T18:00:22Z</time>
      </trkpt>
      <trkpt lat="43.48829" lon="-0.53479">
        <ele>129.489</ele>
        <time>2016-09-25T18:00:42Z</time>
      </trkpt>
      <trkpt lat="43.48814" lon="-0.53511">
        <ele>130.03</ele>
        <time>2016-09-25T18:01:02Z</time>
      </trkpt>
      <trkpt lat="43.4887" lon="-0.53767">
        <ele>130.033</ele>
        <time>2016-09-25T18:01:22Z</time>
      </trkpt>
      <trkpt lat="43.48776" lon="-0.53831">
        <ele>130.012</ele>
        <time>2019-03-30T16:38:45Z</time>
      </trkpt>
      <trkpt lat="43.48883" lon="-0.54046">
        <ele>130.084</ele>
        <time>2019-03-30T16:39:05Z</time>
      </trkpt>
      <trkpt lat="43.4894" lon="-0.54198">
        <ele>129.807</ele>
        <time>2016-09-25T18:02:22Z</time>
      </trkpt>
      <trkpt lat="43.48814" lon="-0.54449">
        <ele>125.017</ele>
        <time>2016-09-25T18:02:42Z</time>
      </trkpt>
      <trkpt lat="43.48709" lon="-0.54397">
        <ele>128.008</ele>
        <time>2016-09-25T18:03:02Z</time>
      </trkpt>
      <trkpt lat="43.48613" lon="-0.54496">
        <ele>130.034</ele>
        <time>2016-09-25T18:03:22Z</time>
      </trkpt>
      <trkpt lat="43.48375" lon="-0.54527">
        <ele>133.561</ele>
        <time>2019-03-30T16:40:45Z</time>
      </trkpt>
      <trkpt lat="43.48085" lon="-0.54985">
        <ele>134.45</ele>
        <time>2016-09-25T18:04:02Z</time>
      </trkpt>
      <trkpt lat="43.47897" lon="-0.55144">
        <ele>133.819</ele>
        <time>2016-09-25T18:04:22Z</time>
      </trkpt>
      <trkpt lat="43.47826" lon="-0.55221">
        <ele>133.065</ele>
        <time>2016-09-25T18:04:42Z</time>
      </trkpt>
      <trkpt lat="43.47789" lon="-0.55247">
        <ele>133.086</ele>
        <time>2016-09-25T18:05:02Z</time>
      </trkpt>
      <trkpt lat="43.47699" lon="-0.555">
        <ele>133.049</ele>
        <time>2016-09-25T18:05:22Z</time>
      </trkpt>
      <trkpt lat="43.47582" lon="-0.5596">
        <ele>132.078</ele>
        <time>2016-09-25T18:05:42Z</time>
      </trkpt>
      <trkpt lat="43.47541" lon="-0.56114">
        <ele>131.073</ele>
        <time>2016-09-25T18:06:02Z</time>
      </trkpt>
      <trkpt lat="43.47515" lon="-0.5629">
        <ele>130.085</ele>
        <time>2016-09-25T18:06:22Z</time>
      </trkpt>
      <trkpt lat="43.47521" lon="-0.56365">
        <ele>130.013</ele>
        <time>2016-09-25T18:06:42Z</time>
      </trkpt>
      <trkpt lat="43.47545" lon="-0.5641">
        <ele>130.008</ele>
        <time>2016-09-25T18:07:02Z</time>
      </trkpt>
      <trkpt lat="43.47489" lon="-0.56557">
        <ele>130.073</ele>
        <time>2019-03-30T16:44:25Z</time>
      </trkpt>
      <trkpt lat="43.47452" lon="-0.56585">
        <ele>130.05</ele>
        <time>2019-03-30T16:44:45Z</time>
      </trkpt>
      <trkpt lat="43.47378" lon="-0.56541">
        <ele>130.099</ele>
        <time>2019-03-30T16:45:05Z</time>
      </trkpt>
      <trkpt lat="43.47271" lon="-0.56529">
        <ele>130.048</ele>
        <time>2019-03-30T16:45:25Z</time>
      </trkpt>
      <trkpt lat="43.47214" lon="-0.56582">
        <ele>131.054</ele>
        <time>2016-09-25T18:08:42Z</time>
      </trkpt>
      <trkpt lat="43.4716" lon="-0.56526">
        <ele>131.075</ele>
        <time>2016-09-25T18:09:02Z</time>
      </trkpt>
      <trkpt lat="43.46987" lon="-0.56766">
        <ele>135.398</ele>
        <time>2016-09-25T18:09:22Z</time>
      </trkpt>
      <trkpt lat="43.46933" lon="-0.56867">
        <ele>138.677</ele>
        <time>2016-09-25T18:09:42Z</time>
      </trkpt>
      <trkpt lat="43.46777" lon="-0.57056">
        <ele>153.158</ele>
        <time>2016-09-25T18:10:02Z</time>
      </trkpt>
      <trkpt lat="43.46697" lon="-0.57105">
        <ele>162.152</ele>
        <time>2016-09-25T18:10:22Z</time>
      </trkpt>
      <trkpt lat="43.4666" lon="-0.57174">
        <ele>171.217</ele>
        <time>2016-09-25T18:10:42Z</time>
      </trkpt>
      <trkpt lat="43.46662" lon="-0.57219">
        <ele>178.208</ele>
        <time>2016-09-25T18:11:02Z</time>
      </trkpt>
      <trkpt lat="43.46694" lon="-0.57286">
        <ele>188.131</ele>
        <time>2016-09-25T18:11:22Z</time>
      </trkpt>
      <trkpt lat="43.46692" lon="-0.57424">
        <ele>197.2</ele>
        <time>2016-09-25T18:11:42Z</time>
      </trkpt>
      <trkpt lat="43.46641" lon="-0.57466">
        <ele>199.817</ele>
        <time>2016-09-25T18:12:02Z</time>
      </trkpt>
      <trkpt lat="43.46624" lon="-0.5755">
        <ele>201.066</ele>
        <time>2016-09-25T18:12:22Z</time>
      </trkpt>
      <trkpt lat="43.46532" lon="-0.57612">
        <ele>200.062</ele>
        <time>2016-09-25T18:12:42Z</time>
      </trkpt>
      <trkpt lat="43.46478" lon="-0.57683">
        <ele>199.953</ele>
        <time>2016-09-25T18:13:02Z</time>
      </trkpt>
      <trkpt lat="43.46478" lon="-0.57756">
        <ele>198.856</ele>
        <time>2016-09-25T18:13:22Z</time>
      </trkpt>
      <trkpt lat="43.46441" lon="-0.57932">
        <ele>194.595</ele>
        <time>2016-09-25T18:13:42Z</time>
      </trkpt>
      <trkpt lat="43.46444" lon="-0.5802">
        <ele>189.795</ele>
        <time>2016-09-25T18:14:02Z</time>
      </trkpt>
      <trkpt lat="43.4642" lon="-0.5815">
        <ele>176.649</ele>
        <time>2016-09-25T18:14:22Z</time>
      </trkpt>
      <trkpt lat="43.46402" lon="-0.58322">
        <ele>157.823</ele>
        <time>2016-09-25T18:14:42Z</time>
      </trkpt>
      <trkpt lat="43.46282" lon="-0.58421">
        <ele>139.008</ele>
        <time>2016-09-25T18:15:02Z</time>
      </trkpt>
      <trkpt lat="43.46236" lon="-0.58543">
        <ele>135.485</ele>
        <time>2016-09-25T18:15:22Z</time>
      </trkpt>
      <trkpt lat="43.46249" lon="-0.58938">
        <ele>134.072</ele>
        <time>2016-09-25T18:15:42Z</time>
      </trkpt>
      <trkpt lat="43.46157" lon="-0.59112">
        <ele>136.451</ele>
        <time>2016-09-25T18:16:02Z</time>
      </trkpt>
      <trkpt lat="43.4616" lon="-0.59337">
        <ele>142.16</ele>
        <time>2016-09-25T18:16:22Z</time>
      </trkpt>
      <trkpt lat="43.46129" lon="-0.59616">
        <ele>155.356</ele>
        <time>2016-09-25T18:16:42Z</time>
      </trkpt>
      <trkpt lat="43.46062" lon="-0.59633">
        <ele>153.167</ele>
        <time>2016-09-25T18:17:02Z</time>
      </trkpt>
      <trkpt lat="43.46031" lon="-0.59794">
        <ele>160.56</ele>
        <time>2016-09-25T18:17:22Z</time>
      </trkpt>
      <trkpt lat="43.45933" lon="-0.59676">
        <ele>167.419</ele>
        <time>2016-09-25T18:17:42Z</time>
      </trkpt>
      <trkpt lat="43.45866" lon="-0.59661">
        <ele>170.911</ele>
        <time>2016-09-25T18:18:02Z</time>
      </trkpt>
      <trkpt lat="43.45807" lon="-0.59663">
        <ele>172.721</ele>
        <time>2016-09-25T18:18:22Z</time>
      </trkpt>
      <trkpt lat="43.45765" lon="-0.59693">
        <ele>172.903</ele>
        <time>2016-09-25T18:18:42Z</time>
      </trkpt>
      <trkpt lat="43.45724" lon="-0.59698">
        <ele>172.208</ele>
        <time>2016-09-25T18:19:02Z</time>
      </trkpt>
      <trkpt lat="43.45587" lon="-0.59775">
        <ele>170.557</ele>
        <time>2016-09-25T18:19:22Z</time>
      </trkpt>
      <trkpt lat="43.45514" lon="-0.59749">
        <ele>167.464</ele>
        <time>2016-09-25T18:19:42Z</time>
      </trkpt>
      <trkpt lat="43.45466" lon="-0.59769">
        <ele>174.263</ele>
        <time>2019-03-30T16:57:05Z</time>
      </trkpt>
      <trkpt lat="43.45548" lon="-0.59901">
        <ele>182.042</ele>
        <time>2016-09-25T18:20:22Z</time>
      </trkpt>
      <trkpt lat="43.45635" lon="-0.59976">
        <ele>187.658</ele>
        <time>2016-09-25T18:20:42Z</time>
      </trkpt>
      <trkpt lat="43.45708" lon="-0.59923">
        <ele>192.619</ele>
        <time>2016-09-25T18:21:02Z</time>
      </trkpt>
      <trkpt lat="43.45819" lon="-0.59934">
        <ele>198.042</ele>
        <time>2016-09-25T18:21:22Z</time>
      </trkpt>
      <trkpt lat="43.45833" lon="-0.60049">
        <ele>204.631</ele>
        <time>2016-09-25T18:21:42Z</time>
      </trkpt>
      <trkpt lat="43.45872" lon="-0.60112">
        <ele>205.037</ele>
        <time>2016-09-25T18:22:02Z</time>
      </trkpt>
      <trkpt lat="43.45937" lon="-0.60127">
        <ele>204.649</ele>
        <time>2019-03-30T16:59:25Z</time>
      </trkpt>
      <trkpt lat="43.46032" lon="-0.60135">
        <ele>203.813</ele>
        <time>2019-03-30T16:59:45Z</time>
      </trkpt>
      <trkpt lat="43.46146" lon="-0.60127">
        <ele>204.708</ele>
        <time>2016-09-25T18:22:42Z</time>
      </trkpt>
      <trkpt lat="43.46254" lon="-0.60191">
        <ele>208.189</ele>
        <time>2016-09-25T18:23:02Z</time>
      </trkpt>
      <trkpt lat="43.46335" lon="-0.60277">
        <ele>209.916</ele>
        <time>2016-09-25T18:23:22Z</time>
      </trkpt>
      <trkpt lat="43.46422" lon="-0.60434">
        <ele>210.025</ele>
        <time>2016-09-25T18:23:42Z</time>
      </trkpt>
      <trkpt lat="43.46483" lon="-0.60618">
        <ele>210.074</ele>
        <time>2016-09-25T18:24:02Z</time>
      </trkpt>
      <trkpt lat="43.4649" lon="-0.60728">
        <ele>210.34</ele>
        <time>2016-09-25T18:24:22Z</time>
      </trkpt>
      <trkpt lat="43.46486" lon="-0.60826">
        <ele>208.381</ele>
        <time>2016-09-25T18:24:42Z</time>
      </trkpt>
      <trkpt lat="43.46433" lon="-0.60968">
        <ele>210.064</ele>
        <time>2016-09-25T18:25:02Z</time>
      </trkpt>
      <trkpt lat="43.46417" lon="-0.61137">
        <ele>210.083</ele>
        <time>2016-09-25T18:25:22Z</time>
      </trkpt>
      <trkpt lat="43.4645" lon="-0.61414">
        <ele>209.222</ele>
        <time>2016-09-25T18:25:42Z</time>
      </trkpt>
      <trkpt lat="43.46501" lon="-0.61509">
        <ele>205.262</ele>
        <time>2016-09-25T18:26:02Z</time>
      </trkpt>
      <trkpt lat="43.46472" lon="-0.61588">
        <ele>202.908</ele>
        <time>2016-09-25T18:26:22Z</time>
      </trkpt>
      <trkpt lat="43.4647" lon="-0.61715">
        <ele>199.208</ele>
        <time>2016-09-25T18:26:42Z</time>
      </trkpt>
      <trkpt lat="43.46487" lon="-0.6191">
        <ele>200.988</ele>
        <time>2016-09-25T18:27:02Z</time>
      </trkpt>
      <trkpt lat="43.46472" lon="-0.6224">
        <ele>215.085</ele>
        <time>2016-09-25T18:27:22Z</time>
      </trkpt>
      <trkpt lat="43.46526" lon="-0.62545">
        <ele>221.554</ele>
        <time>2016-09-25T18:27:42Z</time>
      </trkpt>
      <trkpt lat="43.465" lon="-0.62796">
        <ele>224.313</ele>
        <time>2016-09-25T18:28:02Z</time>
      </trkpt>
      <trkpt lat="43.46523" lon="-0.62944">
        <ele>222.859</ele>
        <time>2016-09-25T18:28:22Z</time>
      </trkpt>
      <trkpt lat="43.46613" lon="-0.63111">
        <ele>227.15</ele>
        <time>2016-09-25T18:28:42Z</time>
      </trkpt>
      <trkpt lat="43.46693" lon="-0.63199">
        <ele>229.533</ele>
        <time>2016-09-25T18:29:02Z</time>
      </trkpt>
      <trkpt lat="43.46736" lon="-0.63225">
        <ele>228.712</ele>
        <time>2016-09-25T18:29:22Z</time>
      </trkpt>
      <trkpt lat="43.46964" lon="-0.63511">
        <ele>219.994</ele>
        <time>2016-09-25T18:29:42Z</time>
      </trkpt>
      <trkpt lat="43.47045" lon="-0.63674">
        <ele>219.957</ele>
        <time>2016-09-25T18:30:02Z</time>
      </trkpt>
      <trkpt lat="43.47112" lon="-0.63927">
        <ele>219.922</ele>
        <time>2016-09-25T18:30:22Z</time>
      </trkpt>
      <trkpt lat="43.47233" lon="-0.64139">
        <ele>214.208</ele>
        <time>2016-09-25T18:30:42Z</time>
      </trkpt>
      <trkpt lat="43.47257" lon="-0.64253">
        <ele>214.135</ele>
        <time>2016-09-25T18:31:02Z</time>
      </trkpt>
      <trkpt lat="43.47257" lon="-0.64253">
        <ele>214.135</ele>
        <time>2016-09-25T18:31:02Z</time>
      </trkpt>
      <trkpt lat="43.47222" lon="-0.64463">
        <ele>216.782</ele>
        <time>2016-09-25T18:31:22Z</time>
      </trkpt>
      <trkpt lat="43.47235" lon="-0.64549">
        <ele>216.651</ele>
        <time>2016-09-25T18:31:42Z</time>
      </trkpt>
      <trkpt lat="43.47302" lon="-0.64637">
        <ele>215.08</ele>
        <time>2016-09-25T18:32:02Z</time>
      </trkpt>
      <trkpt lat="43.47325" lon="-0.64706">
        <ele>213.086</ele>
        <time>2016-09-25T18:32:22Z</time>
      </trkpt>
      <trkpt lat="43.47411" lon="-0.64884">
        <ele>203.157</ele>
        <time>2016-09-25T18:32:42Z</time>
      </trkpt>
      <trkpt lat="43.47453" lon="-0.65122">
        <ele>204.95</ele>
        <time>2016-09-25T18:33:02Z</time>
      </trkpt>
      <trkpt lat="43.47602" lon="-0.65251">
        <ele>196.999</ele>
        <time>2016-09-25T18:33:22Z</time>
      </trkpt>
      <trkpt lat="43.47657" lon="-0.65334">
        <ele>194.634</ele>
        <time>2016-09-25T18:33:42Z</time>
      </trkpt>
      <trkpt lat="43.47694" lon="-0.65429">
        <ele>193.555</ele>
        <time>2016-09-25T18:34:02Z</time>
      </trkpt>
      <trkpt lat="43.47696" lon="-0.65631">
        <ele>183.11</ele>
        <time>2016-09-25T18:34:22Z</time>
      </trkpt>
      <trkpt lat="43.47689" lon="-0.65712">
        <ele>182.608</ele>
        <time>2016-09-25T18:34:42Z</time>
      </trkpt>
      <trkpt lat="43.47719" lon="-0.65918">
        <ele>186.119</ele>
        <time>2016-09-25T18:35:02Z</time>
      </trkpt>
      <trkpt lat="43.47688" lon="-0.66234">
        <ele>188.676</ele>
        <time>2016-09-25T18:35:22Z</time>
      </trkpt>
      <trkpt lat="43.47624" lon="-0.66658">
        <ele>185.865</ele>
        <time>2016-09-25T18:35:42Z</time>
      </trkpt>
      <trkpt lat="43.47587" lon="-0.66757">
        <ele>189.694</ele>
        <time>2016-09-25T18:36:02Z</time>
      </trkpt>
      <trkpt lat="43.47562" lon="-0.66761">
        <ele>189.14</ele>
        <time>2016-09-25T18:36:22Z</time>
      </trkpt>
      <trkpt lat="43.47534" lon="-0.66789">
        <ele>189.151</ele>
        <time>2016-09-25T18:36:42Z</time>
      </trkpt>
      <trkpt lat="43.47423" lon="-0.66772">
        <ele>165.584</ele>
        <time>2016-09-25T18:37:02Z</time>
      </trkpt>
      <trkpt lat="43.47375" lon="-0.66787">
        <ele>157.043</ele>
        <time>2016-09-25T18:37:22Z</time>
      </trkpt>
      <trkpt lat="43.47285" lon="-0.66776">
        <ele>140.093</ele>
        <time>2016-09-25T18:37:42Z</time>
      </trkpt>
      <trkpt lat="43.47238" lon="-0.66787">
        <ele>136.265</ele>
        <time>2016-09-25T18:38:02Z</time>
      </trkpt>
      <trkpt lat="43.47191" lon="-0.66761">
        <ele>134.321</ele>
        <time>2016-09-25T18:38:22Z</time>
      </trkpt>
      <trkpt lat="43.47074" lon="-0.66761">
        <ele>129.808</ele>
        <time>2016-09-25T18:38:42Z</time>
      </trkpt>
      <trkpt lat="43.47004" lon="-0.66806">
        <ele>123.515</ele>
        <time>2016-09-25T18:39:02Z</time>
      </trkpt>
      <trkpt lat="43.46895" lon="-0.66839">
        <ele>118.422</ele>
        <time>2016-09-25T18:39:22Z</time>
      </trkpt>
      <trkpt lat="43.46881" lon="-0.66894">
        <ele>120.151</ele>
        <time>2016-09-25T18:39:42Z</time>
      </trkpt>
      <trkpt lat="43.4683" lon="-0.66955">
        <ele>119.28</ele>
        <time>2016-09-25T18:40:02Z</time>
      </trkpt>
      <trkpt lat="43.4673" lon="-0.67238">
        <ele>116.636</ele>
        <time>2016-09-25T18:40:22Z</time>
      </trkpt>
      <trkpt lat="43.46609" lon="-0.67351">
        <ele>109.897</ele>
        <time>2016-09-25T18:40:42Z</time>
      </trkpt>
      <trkpt lat="43.46537" lon="-0.67442">
        <ele>106.769</ele>
        <time>2016-09-25T18:41:22Z</time>
      </trkpt>
      <trkpt lat="43.46433" lon="-0.67555">
        <ele>102.682</ele>
        <time>2016-09-25T18:41:42Z</time>
      </trkpt>
      <trkpt lat="43.46384" lon="-0.67633">
        <ele>100.843</ele>
        <time>2016-09-25T18:42:02Z</time>
      </trkpt>
      <trkpt lat="43.46236" lon="-0.67768">
        <ele>100.017</ele>
        <time>2016-09-25T18:42:22Z</time>
      </trkpt>
      <trkpt lat="43.46117" lon="-0.67851">
        <ele>95.008</ele>
        <time>2016-09-25T18:42:42Z</time>
      </trkpt>
      <trkpt lat="43.46059" lon="-0.67942">
        <ele>95.994</ele>
        <time>2016-09-25T18:43:02Z</time>
      </trkpt>
      <trkpt lat="43.45937" lon="-0.68068">
        <ele>97.381</ele>
        <time>2016-09-25T18:43:22Z</time>
      </trkpt>
      <trkpt lat="43.45763" lon="-0.68141">
        <ele>94.56</ele>
        <time>2016-09-25T18:43:42Z</time>
      </trkpt>
      <trkpt lat="43.45716" lon="-0.68184">
        <ele>95.069</ele>
        <time>2016-09-25T18:44:02Z</time>
      </trkpt>
      <trkpt lat="43.45624" lon="-0.68201">
        <ele>94.175</ele>
        <time>2016-09-25T18:44:22Z</time>
      </trkpt>
      <trkpt lat="43.455" lon="-0.68203">
        <ele>85.386</ele>
        <time>2016-09-25T18:44:42Z</time>
      </trkpt>
      <trkpt lat="43.45405" lon="-0.68261">
        <ele>77.959</ele>
        <time>2016-09-25T18:45:02Z</time>
      </trkpt>
      <trkpt lat="43.45349" lon="-0.68324">
        <ele>74.058</ele>
        <time>2016-09-25T18:45:22Z</time>
      </trkpt>
      <trkpt lat="43.45269" lon="-0.68326">
        <ele>72.726</ele>
        <time>2016-09-25T18:45:42Z</time>
      </trkpt>
      <trkpt lat="43.45199" lon="-0.68414">
        <ele>70.247</ele>
        <time>2016-09-25T18:46:02Z</time>
      </trkpt>
      <trkpt lat="43.44763" lon="-0.68858">
        <ele>74.011</ele>
        <time>2016-09-25T18:46:22Z</time>
      </trkpt>
      <trkpt lat="43.44704" lon="-0.68888">
        <ele>75.008</ele>
        <time>2016-09-25T18:46:42Z</time>
      </trkpt>
      <trkpt lat="43.44587" lon="-0.68903">
        <ele>75.028</ele>
        <time>2016-09-25T18:47:02Z</time>
      </trkpt>
      <trkpt lat="43.44459" lon="-0.68957">
        <ele>75.055</ele>
        <time>2016-09-25T18:47:22Z</time>
      </trkpt>
      <trkpt lat="43.44269" lon="-0.69057">
        <ele>75.044</ele>
        <time>2016-09-25T18:47:42Z</time>
      </trkpt>
      <trkpt lat="43.44218" lon="-0.69132">
        <ele>75.073</ele>
        <time>2016-09-25T18:48:02Z</time>
      </trkpt>
      <trkpt lat="43.44029" lon="-0.69321">
        <ele>76.059</ele>
        <time>2016-09-25T18:48:22Z</time>
      </trkpt>
      <trkpt lat="43.43948" lon="-0.69242">
        <ele>75.05</ele>
        <time>2016-09-25T18:48:42Z</time>
      </trkpt>
      <trkpt lat="43.43889" lon="-0.69302">
        <ele>76.083</ele>
        <time>2016-09-25T18:49:02Z</time>
      </trkpt>
      <trkpt lat="43.43841" lon="-0.69272">
        <ele>76.062</ele>
        <time>2016-09-25T18:49:22Z</time>
      </trkpt>
      <trkpt lat="43.43686" lon="-0.69259">
        <ele>75.293</ele>
        <time>2016-09-25T18:49:42Z</time>
      </trkpt>
      <trkpt lat="43.4347" lon="-0.69381">
        <ele>76.065</ele>
        <time>2016-09-25T18:50:02Z</time>
      </trkpt>
      <trkpt lat="43.43451" lon="-0.69343">
        <ele>75.821</ele>
        <time>2016-09-25T18:50:22Z</time>
      </trkpt>
      <trkpt lat="43.43317" lon="-0.69266">
        <ele>76.008</ele>
        <time>2016-09-25T18:50:42Z</time>
      </trkpt>
      <trkpt lat="43.4318" lon="-0.69072">
        <ele>77.015</ele>
        <time>2016-09-25T18:51:02Z</time>
      </trkpt>
      <trkpt lat="43.43023" lon="-0.68875">
        <ele>77.682</ele>
        <time>2016-09-25T18:51:22Z</time>
      </trkpt>
      <trkpt lat="43.42957" lon="-0.68813">
        <ele>78.041</ele>
        <time>2016-09-25T18:51:42Z</time>
      </trkpt>
      <trkpt lat="43.42918" lon="-0.68793">
        <ele>78.01</ele>
        <time>2016-09-25T18:52:02Z</time>
      </trkpt>
      <trkpt lat="43.42917" lon="-0.68725">
        <ele>78.056</ele>
        <time>2016-09-25T18:52:22Z</time>
      </trkpt>
      <trkpt lat="43.42862" lon="-0.68617">
        <ele>77.237</ele>
        <time>2016-09-25T18:52:42Z</time>
      </trkpt>
      <trkpt lat="43.42765" lon="-0.68484">
        <ele>77.28</ele>
        <time>2016-09-25T18:53:02Z</time>
      </trkpt>
      <trkpt lat="43.4272" lon="-0.68452">
        <ele>77.359</ele>
        <time>2016-09-25T18:53:22Z</time>
      </trkpt>
      <trkpt lat="43.42697" lon="-0.68407">
        <ele>77.029</ele>
        <time>2016-09-25T18:53:42Z</time>
      </trkpt>
      <trkpt lat="43.42507" lon="-0.6818">
        <ele>78</ele>
        <time>2016-09-25T18:54:02Z</time>
      </trkpt>
      <trkpt lat="43.42462" lon="-0.6815">
        <ele>78.02</ele>
        <time>2016-09-25T18:54:22Z</time>
      </trkpt>
      <trkpt lat="43.42418" lon="-0.68092">
        <ele>78.008</ele>
        <time>2016-09-25T18:54:42Z</time>
      </trkpt>
      <trkpt lat="43.42312" lon="-0.68015">
        <ele>78.898</ele>
        <time>2016-09-25T18:55:02Z</time>
      </trkpt>
      <trkpt lat="43.42187" lon="-0.67961">
        <ele>79.025</ele>
        <time>2016-09-25T18:55:22Z</time>
      </trkpt>
      <trkpt lat="43.421" lon="-0.67873">
        <ele>79.094</ele>
        <time>2016-09-25T18:55:42Z</time>
      </trkpt>
      <trkpt lat="43.41927" lon="-0.67761">
        <ele>87.053</ele>
        <time>2016-09-25T18:56:02Z</time>
      </trkpt>
    </trkseg>
  </trk>
</gpx>